logo
Search for airport 
image banner adimage banner adimage banner ad
image banner ad

ESMOTA - Skarstad / Motala

Located in Motala, Sweden

ICAO - ESMOTA, IATA -

Data provided by Airmate  

General information

Coordinates: N58°29'31" E15°6'9"
Elevation is 337 feet MSL.
Magnetic variation is 5° East
View others Airports in Östergötlands län

Operational data

Special qualification required
Current time UTC:
Current local time:
Weather at : ESCF - Linkoping/Malmen ( 27 km )
METAR: ESCF 140120Z AUTO 22008KT 9999 SCT009/// OVC018/// 09/09 Q1000
View NOTAMs / SUP AIP / TFR affecting this airport [VIEW]
Communications frequencies: [VIEW]

Runways:

RWY identifierQFULength (ft)Width (ft)SurfaceLDA (ft)
0100UNK
19187°00UNK

Airport contact information

Address: Motala Sweden

Satellite view of ESMOTA